Terminal Aerodrome Forecast
Issued by NWS Houston/Galveston, TX

Home | Current Version | Previous Version | Text Only | Print | Product List | Glossary On
Versions: 1 2 3 4 5 6 7 8 9 10 11 12 13 14 15 16 17 18 19 20 21 22 23 24 25 26 27 28
000
FTUS44 KHGX 300306 AAB
TAFCLL
TAF AMD
KCLL 300306Z 3003/3024 17016KT P6SM VCTS FEW015 BKN027 OVC050CB
      TEMPO 3003/3005 -TSRA BKN015CB
     FM300500 16006KT P6SM -TSRA SCT025 BKN035CB
     FM300900 18007KT 6SM BR VCTS SCT015 BKN025CB
     FM301500 VRB04KT P6SM VCSH BKN025
     FM301800 30004KT P6SM SCT035=

USA.gov is the U.S. government's official web portal to all federal, state and local government web resources and services.